createdAt,value
2022-08-17T00:00:56.489Z,22.49
2022-08-17T00:02:30.378Z,22.46
2022-08-17T00:04:10.767Z,22.40
2022-08-17T00:05:49.433Z,22.33
2022-08-17T00:07:21.029Z,22.28
2022-08-17T00:08:56.889Z,22.22
2022-08-17T00:10:28.607Z,22.16
2022-08-17T00:12:40.550Z,22.16
2022-08-17T00:13:56.383Z,22.18
2022-08-17T00:15:27.979Z,22.20
2022-08-17T00:17:00.120Z,22.16
2022-08-17T00:19:06.880Z,22.11
2022-08-17T00:20:32.057Z,22.06
2022-08-17T00:22:32.942Z,22.02
2022-08-17T00:23:59.668Z,22.00
2022-08-17T00:25:32.103Z,21.98
2022-08-17T00:27:04.259Z,21.97
2022-08-17T00:28:36.639Z,21.96
2022-08-17T00:30:09.094Z,21.93
2022-08-17T00:31:40.696Z,21.89
2022-08-17T00:33:16.604Z,21.88
2022-08-17T00:34:48.555Z,21.86
2022-08-17T00:36:20.751Z,21.84
2022-08-17T00:37:52.298Z,21.83
2022-08-17T00:39:23.938Z,21.79
2022-08-17T00:40:59.145Z,21.77
2022-08-17T00:42:31.462Z,21.73
2022-08-17T00:44:03.906Z,21.70
2022-08-17T00:45:35.539Z,21.63
2022-08-17T00:47:07.663Z,21.59
2022-08-17T00:48:39.268Z,21.56
2022-08-17T00:50:13.343Z,21.54
2022-08-17T00:51:57.117Z,21.57
2022-08-17T00:53:29.623Z,21.55
2022-08-17T00:55:01.270Z,21.55
2022-08-17T00:56:33.937Z,21.53
2022-08-17T00:58:05.574Z,21.49
2022-08-17T00:59:41.415Z,21.48
2022-08-17T01:01:13.153Z,21.46
2022-08-17T01:02:55.139Z,21.46
2022-08-17T01:04:27.060Z,21.46
2022-08-17T01:05:59.042Z,21.47
2022-08-17T01:07:31.231Z,21.48
2022-08-17T01:09:03.628Z,21.47
2022-08-17T01:10:59.608Z,21.49
2022-08-17T01:12:31.803Z,21.45
2022-08-17T01:14:03.525Z,21.42
2022-08-17T01:15:38.466Z,21.46
2022-08-17T01:17:10.032Z,21.45
2022-08-17T01:18:42.387Z,21.41
2022-08-17T01:20:14.371Z,21.43
2022-08-17T01:22:04.851Z,21.40
2022-08-17T01:23:36.665Z,21.38
2022-08-17T01:25:09.078Z,21.37
2022-08-17T01:26:41.700Z,21.35
2022-08-17T01:28:13.298Z,21.31
2022-08-17T01:30:06.354Z,21.23
2022-08-17T01:31:59.027Z,21.20
2022-08-17T01:33:30.755Z,21.19
2022-08-17T01:35:02.683Z,21.13
2022-08-17T01:36:34.749Z,21.08
2022-08-17T01:38:06.959Z,21.06
2022-08-17T01:39:43.095Z,21.06
2022-08-17T01:41:15.427Z,21.04
2022-08-17T01:42:57.058Z,21.02
2022-08-17T01:44:29.291Z,20.99
2022-08-17T01:46:02.495Z,21.03
2022-08-17T01:47:36.057Z,21.04
2022-08-17T01:49:08.640Z,21.04
2022-08-17T01:50:42.351Z,21.03
2022-08-17T01:52:14.047Z,21.00
2022-08-17T01:53:48.766Z,20.96
2022-08-17T01:55:23.460Z,20.92
2022-08-17T01:56:59.513Z,20.90
2022-08-17T01:58:32.067Z,20.90
2022-08-17T02:00:05.629Z,20.87
2022-08-17T02:01:38.426Z,20.88
2022-08-17T02:03:10.785Z,20.90
2022-08-17T02:04:42.445Z,20.91
2022-08-17T02:06:27.898Z,20.89
2022-08-17T02:08:00.905Z,20.85
2022-08-17T02:09:32.666Z,20.82
2022-08-17T02:11:05.728Z,20.81
2022-08-17T02:12:43.262Z,20.78
2022-08-17T02:14:14.952Z,20.73
2022-08-17T02:15:46.779Z,20.65
2022-08-17T02:17:18.397Z,20.57
2022-08-17T02:18:50.228Z,20.50
2022-08-17T02:20:41.574Z,20.40
2022-08-17T02:22:13.900Z,20.33
2022-08-17T02:23:46.561Z,20.28
2022-08-17T02:25:18.742Z,20.24
2022-08-17T02:26:50.574Z,20.22
2022-08-17T02:28:22.650Z,20.21
2022-08-17T02:29:54.489Z,20.17
2022-08-17T02:31:26.030Z,20.15
2022-08-17T02:32:57.894Z,20.11
2022-08-17T02:34:30.430Z,20.06
2022-08-17T02:36:02.712Z,20.03
2022-08-17T02:37:34.386Z,20.04
2022-08-17T02:39:06.669Z,20.01
2022-08-17T02:40:40.724Z,20.01
2022-08-17T02:42:13.967Z,19.98
2022-08-17T02:43:45.516Z,19.94
2022-08-17T02:45:18.897Z,19.88
2022-08-17T02:46:50.642Z,19.79
2022-08-17T02:48:30.736Z,19.76
2022-08-17T02:50:04.163Z,19.71
2022-08-17T02:51:35.843Z,19.66
2022-08-17T02:53:07.898Z,19.64
2022-08-17T02:54:42.394Z,19.59
2022-08-17T02:56:14.328Z,19.58
2022-08-17T02:57:47.096Z,19.59
2022-08-17T02:59:19.071Z,19.57
2022-08-17T03:00:50.847Z,19.51
2022-08-17T03:02:22.465Z,19.47
2022-08-17T03:03:54.265Z,19.44
2022-08-17T03:05:26.958Z,19.42
2022-08-17T03:06:58.978Z,19.43
2022-08-17T03:08:30.699Z,19.44
2022-08-17T03:10:02.242Z,19.44
2022-08-17T03:11:33.920Z,19.44
2022-08-17T03:13:05.752Z,19.44
2022-08-17T03:14:41.300Z,19.42
2022-08-17T03:16:13.487Z,19.41
2022-08-17T03:17:45.417Z,19.41
2022-08-17T03:19:16.995Z,19.40
2022-08-17T03:20:48.604Z,19.43
2022-08-17T03:22:36.247Z,19.47
2022-08-17T03:24:09.267Z,19.47
2022-08-17T03:25:43.441Z,19.47
2022-08-17T03:27:16.045Z,19.47
2022-08-17T03:28:48.669Z,19.44
2022-08-17T03:30:22.605Z,19.42
2022-08-17T03:31:54.289Z,19.41
2022-08-17T03:33:25.911Z,19.39
2022-08-17T03:34:58.292Z,19.37
2022-08-17T03:36:29.932Z,19.35
2022-08-17T03:38:11.351Z,19.31
2022-08-17T03:39:43.043Z,19.29
2022-08-17T03:41:14.846Z,19.24
2022-08-17T03:42:46.820Z,19.20
2022-08-17T03:44:18.392Z,19.18
2022-08-17T03:46:26.950Z,19.17
2022-08-17T03:48:19.326Z,19.17
2022-08-17T03:50:10.566Z,19.17
2022-08-17T03:52:01.263Z,19.17
2022-08-17T03:53:51.745Z,19.19
2022-08-17T03:55:42.208Z,19.23
2022-08-17T03:57:13.890Z,19.28
2022-08-17T03:58:46.261Z,19.30
2022-08-17T04:00:17.972Z,19.33
2022-08-17T04:01:53.224Z,19.34
2022-08-17T04:03:25.008Z,19.33
2022-08-17T04:04:56.844Z,19.35
2022-08-17T04:06:28.936Z,19.36
2022-08-17T04:08:00.599Z,19.37
2022-08-17T04:09:32.263Z,19.38
2022-08-17T04:11:03.973Z,19.37
2022-08-17T04:12:46.025Z,19.37
2022-08-17T04:14:17.643Z,19.39
2022-08-17T04:15:49.461Z,19.44
2022-08-17T04:17:25.311Z,19.46
2022-08-17T04:18:57.412Z,19.53
2022-08-17T04:20:29.357Z,19.58
2022-08-17T04:22:01.503Z,19.63
2022-08-17T04:23:35.236Z,19.68
2022-08-17T04:25:08.571Z,19.72
2022-08-17T04:26:52.925Z,19.77
2022-08-17T04:28:26.319Z,19.82
2022-08-17T04:29:58.805Z,19.90
2022-08-17T04:31:30.492Z,19.99
2022-08-17T04:33:12.333Z,20.05
2022-08-17T04:34:44.127Z,20.10
2022-08-17T04:36:15.912Z,20.16
2022-08-17T04:37:47.822Z,20.25
2022-08-17T04:39:19.624Z,20.37
2022-08-17T04:41:10.186Z,20.48
2022-08-17T04:42:42.017Z,20.58
2022-08-17T04:44:13.745Z,20.64
2022-08-17T04:46:06.300Z,20.71
2022-08-17T04:47:38.085Z,20.75
2022-08-17T04:49:10.388Z,20.82
2022-08-17T04:50:45.772Z,20.93
2022-08-17T04:52:29.696Z,21.03
2022-08-17T04:54:16.341Z,21.11
2022-08-17T04:55:50.363Z,21.20
2022-08-17T04:57:22.594Z,21.27
2022-08-17T04:58:55.260Z,21.34
2022-08-17T05:00:27.216Z,21.44
2022-08-17T05:01:58.945Z,21.56
2022-08-17T05:03:30.559Z,21.62
2022-08-17T05:05:02.234Z,21.72
2022-08-17T05:06:33.785Z,21.85
2022-08-17T05:08:05.923Z,21.92
2022-08-17T05:09:37.548Z,21.96
2022-08-17T05:11:09.771Z,21.99
2022-08-17T05:12:41.408Z,22.06
2022-08-17T05:14:13.770Z,22.15
2022-08-17T05:15:47.656Z,22.22
2022-08-17T05:17:19.842Z,22.29
2022-08-17T05:18:51.931Z,22.37
2022-08-17T05:20:23.795Z,22.41
2022-08-17T05:21:55.599Z,22.46
2022-08-17T05:23:27.435Z,22.56
2022-08-17T05:25:10.179Z,22.63
2022-08-17T05:26:42.687Z,22.61
2022-08-17T05:28:15.359Z,22.55
2022-08-17T05:29:47.807Z,22.53
2022-08-17T05:31:20.128Z,22.54
2022-08-17T05:32:57.161Z,22.59
2022-08-17T05:34:29.001Z,22.70
2022-08-17T05:36:00.782Z,22.72
2022-08-17T05:37:32.657Z,22.70
2022-08-17T05:39:04.956Z,22.73
2022-08-17T05:40:37.138Z,22.75
2022-08-17T05:42:08.973Z,22.77
2022-08-17T05:43:41.248Z,22.72
2022-08-17T05:45:14.158Z,22.73
2022-08-17T05:46:48.656Z,22.73
2022-08-17T05:48:20.747Z,22.75
2022-08-17T05:50:09.745Z,22.83
2022-08-17T05:52:00.453Z,22.94
2022-08-17T05:53:39.215Z,23.06
2022-08-17T05:55:31.518Z,23.20
2022-08-17T05:57:23.913Z,23.28
2022-08-17T05:58:55.801Z,23.51
2022-08-17T06:00:31.492Z,23.72
2022-08-17T06:02:09.053Z,23.79
2022-08-17T06:03:50.892Z,24.00
2022-08-17T06:05:39.289Z,24.06
2022-08-17T06:07:23.248Z,24.12
2022-08-17T06:09:13.532Z,24.18
2022-08-17T06:10:48.952Z,24.34
2022-08-17T06:13:54.605Z,24.50
2022-08-17T06:15:29.435Z,24.51
2022-08-17T06:17:02.960Z,24.51
2022-08-17T06:18:37.251Z,24.56
2022-08-17T06:20:10.394Z,24.51
2022-08-17T06:21:43.126Z,24.54
2022-08-17T06:23:16.242Z,24.60
2022-08-17T06:24:50.327Z,24.66
2022-08-17T06:26:25.882Z,24.60
2022-08-17T06:28:03.303Z,24.52
2022-08-17T06:29:50.196Z,24.56
2022-08-17T06:31:33.269Z,24.81
2022-08-17T06:33:06.816Z,24.96
2022-08-17T06:34:38.685Z,25.14
2022-08-17T06:36:10.606Z,25.18
2022-08-17T06:38:06.021Z,25.40
2022-08-17T06:39:50.755Z,25.43
2022-08-17T06:41:23.377Z,25.58
2022-08-17T07:01:50.371Z,27.05
2022-08-17T07:03:24.619Z,27.22
2022-08-17T07:04:56.992Z,27.41
2022-08-17T07:06:29.817Z,27.58
2022-08-17T07:08:03.644Z,27.73
2022-08-17T07:09:36.132Z,27.89
2022-08-17T07:11:18.771Z,27.94
2022-08-17T07:12:50.631Z,28.08
2022-08-17T07:14:37.929Z,28.22
2022-08-17T07:16:28.703Z,28.39
2022-08-17T07:18:00.791Z,28.38
2022-08-17T07:19:33.556Z,28.32
2022-08-17T07:21:09.283Z,28.41
2022-08-17T07:22:59.655Z,28.51
2022-08-17T07:24:52.897Z,28.68
2022-08-17T07:26:24.618Z,28.80
2022-08-17T07:28:00.144Z,28.85
2022-08-17T07:29:33.568Z,28.77
2022-08-17T07:31:05.473Z,28.61
2022-08-17T07:32:40.581Z,28.58
2022-08-17T07:34:15.830Z,28.61
2022-08-17T07:35:48.525Z,28.57
2022-08-17T07:47:50.602Z,28.24
2022-08-17T07:49:35.305Z,28.30
2022-08-17T07:51:16.461Z,28.35
2022-08-17T07:52:51.647Z,28.47
2022-08-17T07:54:24.688Z,28.48
2022-08-17T07:55:56.596Z,28.61
2022-08-17T07:57:32.348Z,28.75
2022-08-17T07:59:15.298Z,28.79
2022-08-17T08:00:47.001Z,28.77
2022-08-17T08:02:45.963Z,28.72
2022-08-17T08:06:29.506Z,28.87
2022-08-17T08:08:04.905Z,29.01
2022-08-17T08:09:46.601Z,29.24
2022-08-17T08:11:44.105Z,29.53
2022-08-17T08:13:16.417Z,29.79
2022-08-17T08:15:11.429Z,29.92
2022-08-17T08:16:44.869Z,29.88
2022-08-17T08:18:53.563Z,29.91
2022-08-17T08:20:52.563Z,30.11
2022-08-17T08:22:29.228Z,30.33
2022-08-17T08:24:10.387Z,30.53
2022-08-17T08:25:45.584Z,30.63
2022-08-17T08:27:20.692Z,30.73
2022-08-17T08:29:02.492Z,30.76
2022-08-17T08:30:35.565Z,30.92
2022-08-17T08:32:10.036Z,30.94
2022-08-17T08:33:48.631Z,30.98
2022-08-17T08:35:21.856Z,31.00
2022-08-17T08:37:19.299Z,31.08
2022-08-17T08:39:01.230Z,31.09
2022-08-17T08:40:33.140Z,31.09
2022-08-17T08:42:07.970Z,31.19
2022-08-17T08:43:58.805Z,31.32
2022-08-17T08:45:38.443Z,31.33
2022-08-17T08:47:14.430Z,31.39
2022-08-17T08:48:56.174Z,31.40
2022-08-17T08:50:37.962Z,31.48
2022-08-17T08:52:14.945Z,31.52
2022-08-17T08:53:55.606Z,31.61
2022-08-17T08:55:27.236Z,31.52
2022-08-17T08:57:25.606Z,31.48
2022-08-17T08:59:28.938Z,31.61
2022-08-17T09:01:01.117Z,31.86
2022-08-17T09:02:34.638Z,31.97
2022-08-17T09:04:25.567Z,31.91
2022-08-17T09:06:04.022Z,31.84
2022-08-17T09:07:51.429Z,31.68
2022-08-17T09:09:47.643Z,31.71
2022-08-17T09:11:36.128Z,31.92
2022-08-17T09:13:30.524Z,31.99
2022-08-17T09:15:21.773Z,31.83
2022-08-17T09:16:56.165Z,31.70
2022-08-17T09:19:01.392Z,31.80
2022-08-17T09:20:35.094Z,31.89
2022-08-17T09:22:12.213Z,31.95
2022-08-17T09:23:45.456Z,31.99
2022-08-17T09:25:22.024Z,32.00
2022-08-17T09:26:56.740Z,31.98
2022-08-17T09:28:35.189Z,31.95
2022-08-17T09:30:11.736Z,31.96
2022-08-17T09:31:57.016Z,31.98
2022-08-17T09:33:28.894Z,32.03
2022-08-17T09:35:02.086Z,32.09
2022-08-17T09:37:00.412Z,32.16
2022-08-17T09:38:41.905Z,32.33
2022-08-17T09:40:18.572Z,32.48
2022-08-17T09:41:55.991Z,32.57
2022-08-17T09:43:40.079Z,32.69
2022-08-17T09:45:21.105Z,32.81
2022-08-17T09:46:56.491Z,32.94
2022-08-17T09:48:33.915Z,33.08
2022-08-17T09:50:14.383Z,33.15
2022-08-17T09:51:49.062Z,33.25
2022-08-17T09:53:21.035Z,33.40
2022-08-17T09:54:53.437Z,33.56
2022-08-17T09:56:34.137Z,33.64
2022-08-17T09:58:28.978Z,33.77
2022-08-17T10:00:10.637Z,33.96
2022-08-17T10:01:47.984Z,33.98
2022-08-17T10:03:38.407Z,34.06
2022-08-17T10:05:14.303Z,34.03
2022-08-17T10:06:59.352Z,33.97
2022-08-17T10:08:30.979Z,33.87
2022-08-17T10:10:14.367Z,33.93
2022-08-17T10:12:17.468Z,33.88
2022-08-17T10:13:53.340Z,33.79
2022-08-17T10:15:25.663Z,33.71
2022-08-17T10:17:17.704Z,33.69
2022-08-17T10:19:07.630Z,33.60
2022-08-17T10:20:47.319Z,33.64
2022-08-17T10:22:43.160Z,33.72
2022-08-17T10:24:39.408Z,33.81
2022-08-17T11:23:53.412Z,33.52
2022-08-17T11:25:45.556Z,33.61
2022-08-17T11:27:21.027Z,33.66
2022-08-17T11:28:54.647Z,33.74
2022-08-17T11:30:41.499Z,33.84
2022-08-17T11:32:37.488Z,33.99
2022-08-17T11:34:26.692Z,34.19
2022-08-17T11:36:10.523Z,34.33
2022-08-17T11:37:42.090Z,34.36
2022-08-17T11:39:19.769Z,34.35
2022-08-17T11:41:10.688Z,34.22
2022-08-17T11:42:48.994Z,34.13
2022-08-17T11:44:33.143Z,34.07
2022-08-17T11:46:17.329Z,33.92
2022-08-17T11:48:29.133Z,33.80
2022-08-17T11:50:27.985Z,33.63
2022-08-17T11:52:01.191Z,33.48
2022-08-17T11:53:39.677Z,33.39
2022-08-17T11:55:34.513Z,33.33
2022-08-17T11:57:21.913Z,33.30
2022-08-17T11:58:54.016Z,33.25
2022-08-17T12:00:44.757Z,33.29
2022-08-17T12:02:19.875Z,33.47
2022-08-17T12:03:59.304Z,33.63
2022-08-17T12:05:32.727Z,33.76
2022-08-17T12:07:09.648Z,33.82
2022-08-17T12:08:43.617Z,33.80
2022-08-17T12:10:17.430Z,33.71
2022-08-17T12:11:55.601Z,33.65
2022-08-17T12:13:45.195Z,33.58
2022-08-17T12:15:18.614Z,33.53
2022-08-17T12:17:07.406Z,33.44
2022-08-17T12:18:42.257Z,33.39
2022-08-17T12:20:19.786Z,33.41
2022-08-17T12:22:02.522Z,33.36
2022-08-17T12:23:36.510Z,33.32
2022-08-17T12:25:12.911Z,33.22
2022-08-17T12:26:49.547Z,33.17
2022-08-17T12:28:23.039Z,33.13
2022-08-17T12:29:55.599Z,33.22
2022-08-17T12:31:32.086Z,33.34
2022-08-17T12:33:04.094Z,33.48
2022-08-17T12:34:37.251Z,33.53
2022-08-17T12:36:09.078Z,33.61
2022-08-17T12:37:43.968Z,33.59
2022-08-17T12:39:21.283Z,33.58
2022-08-17T12:40:54.228Z,33.55
2022-08-17T12:42:33.236Z,33.57
2022-08-17T12:44:06.722Z,33.56
2022-08-17T12:45:42.168Z,33.50
2022-08-17T12:47:22.281Z,33.49
2022-08-17T12:48:59.601Z,33.43
2022-08-17T12:50:32.409Z,33.33
2022-08-17T12:52:06.208Z,33.27
2022-08-17T12:53:45.712Z,33.19
2022-08-17T12:55:21.411Z,33.10
2022-08-17T12:56:53.375Z,33.02
2022-08-17T12:58:27.132Z,32.91
2022-08-17T13:00:00.975Z,32.77
2022-08-17T13:01:35.139Z,32.65
2022-08-17T13:03:09.263Z,32.57
2022-08-17T13:04:44.853Z,32.50
2022-08-17T13:06:27.948Z,32.42
2022-08-17T13:08:00.170Z,32.36
2022-08-17T13:09:40.130Z,32.35
2022-08-17T13:11:16.600Z,32.33
2022-08-17T13:12:51.064Z,32.36
2022-08-17T13:14:22.995Z,32.44
2022-08-17T13:15:58.941Z,32.62
2022-08-17T13:17:32.567Z,32.78
2022-08-17T13:19:08.070Z,32.94
2022-08-17T13:20:39.759Z,33.08
2022-08-17T13:22:13.486Z,33.21
2022-08-17T13:23:58.429Z,33.22
2022-08-17T13:25:30.148Z,33.07
2022-08-17T13:27:01.980Z,32.92
2022-08-17T13:28:39.926Z,32.81
2022-08-17T13:30:14.349Z,32.70
2022-08-17T13:31:52.559Z,32.58
2022-08-17T13:33:43.314Z,32.53
2022-08-17T13:35:32.981Z,32.47
2022-08-17T13:37:18.237Z,32.40
2022-08-17T13:38:52.669Z,32.38
2022-08-17T13:40:29.529Z,32.47
2022-08-17T13:42:01.461Z,32.53
2022-08-17T13:43:46.752Z,32.68
2022-08-17T13:45:35.131Z,32.74
2022-08-17T13:47:15.932Z,32.84
2022-08-17T13:48:57.130Z,32.94
2022-08-17T13:50:28.968Z,33.08
2022-08-17T13:52:01.092Z,33.20
2022-08-17T13:53:47.811Z,33.31
2022-08-17T13:55:20.447Z,33.42
2022-08-17T13:56:54.426Z,33.54
2022-08-17T13:58:34.234Z,33.64
2022-08-17T14:00:12.280Z,33.69
2022-08-17T14:01:47.440Z,33.69
2022-08-17T14:03:23.151Z,33.72
2022-08-17T14:04:54.971Z,33.72
2022-08-17T14:06:52.595Z,33.76
2022-08-17T14:08:19.458Z,33.77
2022-08-17T14:10:02.179Z,33.78
2022-08-17T14:11:33.767Z,33.80
2022-08-17T14:13:05.930Z,33.82
2022-08-17T14:14:37.780Z,33.86
2022-08-17T14:16:09.511Z,33.88
2022-08-17T14:17:41.370Z,33.95
2022-08-17T14:19:13.415Z,34.04
2022-08-17T14:20:45.158Z,34.13
2022-08-17T14:22:27.112Z,34.22
2022-08-17T14:23:58.972Z,34.30
2022-08-17T14:25:30.842Z,34.37
2022-08-17T14:27:03.558Z,34.39
2022-08-17T14:28:35.419Z,34.38
2022-08-17T14:30:08.541Z,34.43
2022-08-17T14:31:40.263Z,34.50
2022-08-17T14:33:14.524Z,34.49
2022-08-17T14:34:47.185Z,34.60
2022-08-17T14:36:18.763Z,34.63
2022-08-17T14:37:50.854Z,34.63
2022-08-17T14:39:22.959Z,34.60
2022-08-17T14:40:54.593Z,34.56
2022-08-17T14:42:26.901Z,34.50
2022-08-17T14:43:58.601Z,34.43
2022-08-17T14:45:32.754Z,34.30
2022-08-17T14:47:05.518Z,34.13
2022-08-17T14:48:38.904Z,34.09
2022-08-17T14:50:11.672Z,34.05
2022-08-17T14:51:44.061Z,34.00
2022-08-17T14:53:16.972Z,33.94
2022-08-17T14:54:51.838Z,33.82
2022-08-17T14:56:24.412Z,33.73
2022-08-17T14:57:56.100Z,33.62
2022-08-17T14:59:28.263Z,33.54
2022-08-17T15:01:00.284Z,33.58
2022-08-17T15:02:32.079Z,33.56
2022-08-17T15:04:04.070Z,33.56
2022-08-17T15:05:36.829Z,33.59
2022-08-17T15:07:08.489Z,33.57
2022-08-17T15:08:40.390Z,33.53
2022-08-17T15:10:12.950Z,33.45
2022-08-17T15:11:45.011Z,33.39
2022-08-17T15:13:20.335Z,33.29
2022-08-17T15:14:52.114Z,33.17
2022-08-17T15:16:24.321Z,33.10
2022-08-17T15:17:56.923Z,33.19
2022-08-17T15:19:28.993Z,33.32
2022-08-17T15:21:02.499Z,33.45
2022-08-17T15:22:34.165Z,33.58
2022-08-17T15:24:06.043Z,33.71
2022-08-17T15:25:37.651Z,33.80
2022-08-17T15:27:10.064Z,33.79
2022-08-17T15:28:41.735Z,33.92
2022-08-17T15:30:13.411Z,34.02
2022-08-17T15:31:45.180Z,34.12
2022-08-17T15:33:18.060Z,34.15
2022-08-17T15:34:49.946Z,34.18
2022-08-17T15:36:22.382Z,34.18
2022-08-17T15:37:54.129Z,34.20
2022-08-17T15:39:25.853Z,34.17
2022-08-17T15:40:58.610Z,34.11
2022-08-17T15:42:30.231Z,34.05
2022-08-17T15:44:02.568Z,33.98
2022-08-17T15:45:34.462Z,33.98
2022-08-17T15:47:06.297Z,33.98
2022-08-17T15:48:42.241Z,33.96
2022-08-17T15:50:14.306Z,33.91
2022-08-17T15:51:45.882Z,33.84
2022-08-17T15:53:17.467Z,33.70
2022-08-17T15:54:56.488Z,33.63
2022-08-17T15:56:28.238Z,33.56
2022-08-17T15:58:00.249Z,33.51
2022-08-17T15:59:32.173Z,33.45
2022-08-17T16:01:16.741Z,33.37
2022-08-17T16:03:47.067Z,33.36
2022-08-17T16:04:46.583Z,33.35
2022-08-17T16:06:19.425Z,33.27
2022-08-17T16:07:51.294Z,33.14
2022-08-17T16:09:23.111Z,33.08
2022-08-17T16:10:55.479Z,33.01
2022-08-17T16:12:27.354Z,32.96
2022-08-17T16:13:59.332Z,32.91
2022-08-17T16:15:31.894Z,32.85
2022-08-17T16:17:04.732Z,32.79
2022-08-17T16:18:36.583Z,32.76
2022-08-17T16:20:09.934Z,32.66
2022-08-17T16:21:52.821Z,32.62
2022-08-17T16:23:24.826Z,32.53
2022-08-17T16:24:57.651Z,32.45
2022-08-17T16:26:29.951Z,32.39
2022-08-17T16:28:01.817Z,32.27
2022-08-17T16:29:34.083Z,32.20
2022-08-17T16:31:08.014Z,32.16
2022-08-17T16:32:42.255Z,32.10
2022-08-17T16:34:17.439Z,32.05
2022-08-17T16:35:50.355Z,32.05
2022-08-17T16:37:24.289Z,32.02
2022-08-17T16:38:57.280Z,32.01
2022-08-17T16:40:29.285Z,31.94
2022-08-17T16:42:03.219Z,31.89
2022-08-17T16:43:35.105Z,31.84
2022-08-17T16:45:08.183Z,31.82
2022-08-17T16:46:40.861Z,31.72
2022-08-17T16:48:18.678Z,31.64
2022-08-17T16:49:51.041Z,31.53
2022-08-17T16:51:23.018Z,31.45
2022-08-17T16:53:03.197Z,31.36
2022-08-17T16:54:35.749Z,31.33
2022-08-17T16:56:07.917Z,31.29
2022-08-17T16:57:47.206Z,31.23
2022-08-17T16:59:30.744Z,31.16
2022-08-17T17:01:11.296Z,31.09
2022-08-17T17:02:47.084Z,31.04
2022-08-17T17:04:19.551Z,31.01
2022-08-17T17:05:51.409Z,30.95
2022-08-17T17:07:45.555Z,30.89
2022-08-17T17:09:19.147Z,30.84
2022-08-17T17:10:51.402Z,30.77
2022-08-17T17:13:01.273Z,30.68
2022-08-17T17:14:15.790Z,30.60
2022-08-17T17:15:48.395Z,30.52
2022-08-17T17:17:33.536Z,30.47
2022-08-17T17:19:34.283Z,30.39
2022-08-17T17:21:08.893Z,30.26
2022-08-17T17:22:57.563Z,30.20
2022-08-17T17:24:37.707Z,30.13
2022-08-17T17:26:17.480Z,30.05
2022-08-17T17:28:08.040Z,29.95
2022-08-17T17:29:52.333Z,29.85
2022-08-17T17:31:24.908Z,29.73
2022-08-17T17:33:02.338Z,29.63
2022-08-17T17:34:34.952Z,29.56
2022-08-17T17:36:25.760Z,29.46
2022-08-17T17:37:57.689Z,29.36
2022-08-17T17:39:37.369Z,29.30
2022-08-17T17:41:11.590Z,29.22
2022-08-17T17:42:43.962Z,29.17
2022-08-17T17:44:18.742Z,29.11
2022-08-17T17:45:57.153Z,29.07
2022-08-17T17:47:31.539Z,29.00
2022-08-17T17:49:05.654Z,28.89
2022-08-17T17:50:38.636Z,28.79
2022-08-17T17:52:20.484Z,28.72
2022-08-17T17:54:02.008Z,28.64
2022-08-17T17:55:43.444Z,28.51
2022-08-17T17:57:27.094Z,28.44
2022-08-17T17:59:02.942Z,28.37
2022-08-17T18:00:34.753Z,28.31
2022-08-17T18:02:38.798Z,28.24
2022-08-17T18:04:20.881Z,28.12
2022-08-17T18:06:09.772Z,28.08
2022-08-17T18:07:47.171Z,28.02
2022-08-17T18:09:38.176Z,27.95
2022-08-17T18:11:25.841Z,27.89
2022-08-17T18:13:10.368Z,27.82
2022-08-17T18:14:51.128Z,27.76
2022-08-17T18:16:23.366Z,27.68
2022-08-17T18:18:10.881Z,27.59
2022-08-17T18:19:42.438Z,27.48
2022-08-17T18:21:17.504Z,27.41
2022-08-17T18:22:49.257Z,27.37
2022-08-17T18:24:40.037Z,27.34
2022-08-17T18:26:11.737Z,27.33
2022-08-17T18:27:50.230Z,27.30
2022-08-17T18:29:24.051Z,27.30
2022-08-17T18:31:07.754Z,27.30
2022-08-17T18:32:41.090Z,27.24
2022-08-17T18:34:46.456Z,27.15
2022-08-17T18:36:32.076Z,27.03
2022-08-17T18:38:42.403Z,26.87
2022-08-17T18:40:17.330Z,26.73
2022-08-17T18:41:49.992Z,26.66
2022-08-17T18:43:25.742Z,26.60
2022-08-17T18:44:57.546Z,26.55
2022-08-17T18:46:36.740Z,26.52
2022-08-17T18:48:27.975Z,26.48
2022-08-17T18:50:20.329Z,26.48
2022-08-17T18:52:12.308Z,26.46
2022-08-17T18:53:44.242Z,26.47
2022-08-17T18:55:22.813Z,26.50
2022-08-17T18:56:57.475Z,26.52
2022-08-17T18:58:29.624Z,26.53
2022-08-17T19:00:01.452Z,26.55
2022-08-17T19:01:47.583Z,26.56
2022-08-17T19:03:26.217Z,26.52
2022-08-17T19:04:57.999Z,26.46
2022-08-17T19:06:30.547Z,26.37
2022-08-17T19:08:16.114Z,26.30
2022-08-17T19:09:49.232Z,26.23
2022-08-17T19:11:24.633Z,26.16
2022-08-17T19:13:12.575Z,26.12
2022-08-17T19:14:44.962Z,26.06
2022-08-17T19:16:27.873Z,26.06
2022-08-17T19:18:28.085Z,26.04
2022-08-17T19:20:05.829Z,25.97
2022-08-17T19:21:39.617Z,25.95
2022-08-17T19:23:21.101Z,25.94
2022-08-17T19:25:02.592Z,25.94
2022-08-17T19:26:54.224Z,25.92
2022-08-17T19:28:50.293Z,25.87
2022-08-17T19:30:22.492Z,25.88
2022-08-17T19:31:57.497Z,25.85
2022-08-17T19:33:29.296Z,25.83
2022-08-17T19:35:01.575Z,25.79
2022-08-17T19:36:50.662Z,25.76
2022-08-17T19:38:40.022Z,25.66
2022-08-17T19:40:29.224Z,25.60
2022-08-17T19:42:14.890Z,25.56
2022-08-17T19:43:51.672Z,25.52
2022-08-17T19:45:33.580Z,25.48
2022-08-17T19:47:10.503Z,25.42
2022-08-17T19:48:52.044Z,25.37
2022-08-17T19:50:41.823Z,25.37
2022-08-17T19:52:16.310Z,25.35
2022-08-17T19:54:06.610Z,25.29
2022-08-17T19:55:58.143Z,25.25
2022-08-17T19:57:41.846Z,25.23
2022-08-17T19:59:13.837Z,25.16
2022-08-17T20:00:48.103Z,25.14
2022-08-17T20:02:34.349Z,25.13
2022-08-17T20:04:08.126Z,25.10
2022-08-17T20:06:13.531Z,25.09
2022-08-17T20:07:45.799Z,25.04
2022-08-17T20:09:38.051Z,25.02
2022-08-17T20:11:11.507Z,25.00
2022-08-17T20:12:44.208Z,24.99
2022-08-17T20:14:16.039Z,24.97
2022-08-17T20:15:47.975Z,24.98
2022-08-17T20:17:19.867Z,24.96
2022-08-17T20:19:02.476Z,24.95
2022-08-17T20:20:46.804Z,24.94
2022-08-17T20:22:27.290Z,24.94
2022-08-17T20:23:58.897Z,24.92
2022-08-17T20:25:48.156Z,24.92
2022-08-17T20:27:31.510Z,24.92
2022-08-17T20:29:09.231Z,24.91
2022-08-17T20:30:41.569Z,24.89
2022-08-17T20:32:15.195Z,24.89
2022-08-17T20:33:46.818Z,24.87
2022-08-17T20:35:18.597Z,24.85
2022-08-17T20:37:08.983Z,24.83
2022-08-17T20:38:42.279Z,24.82
2022-08-17T20:40:15.414Z,24.78
2022-08-17T20:42:16.844Z,24.73
2022-08-17T20:43:51.421Z,24.69
2022-08-17T20:45:26.688Z,24.66
2022-08-17T20:47:01.601Z,24.61
2022-08-17T20:48:38.686Z,24.55
2022-08-17T20:50:11.978Z,24.55
2022-08-17T20:52:01.817Z,24.53
2022-08-17T20:53:55.278Z,24.49
2022-08-17T20:55:52.070Z,24.44
2022-08-17T20:57:33.315Z,24.36
2022-08-17T20:59:05.262Z,24.27
2022-08-17T21:00:40.799Z,24.21
2022-08-17T21:02:19.326Z,24.17
2022-08-17T21:03:52.085Z,24.16
2022-08-17T21:05:34.522Z,24.15
2022-08-17T21:07:24.919Z,24.15
2022-08-17T21:09:16.746Z,24.15
2022-08-17T21:10:49.051Z,24.14
2022-08-17T21:14:41.043Z,24.05
2022-08-17T21:16:25.135Z,24.03
2022-08-17T21:18:18.570Z,23.99
2022-08-17T21:20:11.376Z,23.89
2022-08-17T21:21:52.931Z,23.81
2022-08-17T21:23:33.959Z,23.76
2022-08-17T21:25:05.557Z,23.69
2022-08-17T21:26:52.180Z,23.62
2022-08-17T21:28:33.875Z,23.58
2022-08-17T21:30:06.704Z,23.61
2022-08-17T21:31:43.647Z,23.60
2022-08-17T21:33:20.689Z,23.58
2022-08-17T21:35:07.633Z,23.53
2022-08-17T21:36:39.267Z,23.51
2022-08-17T21:38:12.429Z,23.50
2022-08-17T21:39:44.370Z,23.47
2022-08-17T21:41:23.296Z,23.46
2022-08-17T21:42:56.251Z,23.46
2022-08-17T21:44:32.088Z,23.46
2022-08-17T21:46:07.937Z,23.44
2022-08-17T21:47:43.807Z,23.44
2022-08-17T21:49:16.911Z,23.42
2022-08-17T21:50:57.955Z,23.40
2022-08-17T21:52:29.863Z,23.39
2022-08-17T21:54:02.662Z,23.39
2022-08-17T21:55:34.466Z,23.37
2022-08-17T21:57:06.947Z,23.35
2022-08-17T21:58:40.264Z,23.35
2022-08-17T22:00:16.978Z,23.39
2022-08-17T22:01:53.209Z,23.41
2022-08-17T22:03:26.096Z,23.44
2022-08-17T22:04:58.899Z,23.41
2022-08-17T22:06:34.402Z,23.38
2022-08-17T22:08:16.440Z,23.37
2022-08-17T22:09:48.990Z,23.33
2022-08-17T22:11:22.822Z,23.30
2022-08-17T22:13:06.172Z,23.25
2022-08-17T22:14:58.335Z,23.22
2022-08-17T22:16:29.951Z,23.18
2022-08-17T22:18:20.405Z,23.18
2022-08-17T22:19:59.349Z,23.16
2022-08-17T22:21:38.308Z,23.22
2022-08-17T22:23:32.886Z,23.20
2022-08-17T22:25:05.684Z,23.16
2022-08-17T22:26:55.456Z,23.14
2022-08-17T22:28:40.898Z,23.11